CheckWX is a tool to help pilots better visualize weather data.  It is not intended as a substitute for an official pre-flight weather briefing.

13:18:41 UTC

LKPD METAR
Pardubice Airport
Pardubice, Czech Republic
Current

19 mins ago

LKPD 081300Z 21009KT 9999 FEW033 BKN200 10/02 Q1008 NOSIG RMK BLU BLU
Observed
Dec-8 @ 13:00 UTC
Wind
  • 210° at 9 KTS
Visibility
10,000+ meters
Flight Rules
VFR
Cloud Levels
  • Few at 3,300' AGL
  • Broken at 20,000' AGL
Temperature
10°C / 50°F
Dewpoint
C / 36°F
Humidity
58%
Altimeter
29.76" Hg
Pressure
1007.92 hPa
Previous

1 hour ago

LKPD 081200Z 21010KT 9999 FEW033 BKN200 10/02 Q1009 NOSIG RMK BLU BLU
Observed
Dec-8 @ 12:00 UTC
Wind
  • 210° at 10 KTS
Visibility
10,000+ meters
Flight Rules
VFR
Cloud Levels
  • Few at 3,300' AGL
  • Broken at 20,000' AGL
Temperature
10°C / 50°F
Dewpoint
C / 36°F
Humidity
58%
Altimeter
29.79" Hg
Pressure
1008.92 hPa
Previous

2 hours ago

LKPD 081100Z 20010KT 9999 SCT040 BKN200 10/02 Q1010 NOSIG RMK BLU BLU
Observed
Dec-8 @ 11:00 UTC
Wind
  • 200° at 10 KTS
Visibility
10,000+ meters
Flight Rules
VFR
Cloud Levels
  • Scattered at 4,000' AGL
  • Broken at 20,000' AGL
Temperature
10°C / 50°F
Dewpoint
C / 36°F
Humidity
58%
Altimeter
29.82" Hg
Pressure
1009.92 hPa